createdAt,value
2023-02-15T08:32:48.873Z,36.47
2023-02-15T08:47:50.208Z,46.77
2023-02-15T08:52:43.676Z,38.83
2023-02-15T08:57:38.221Z,31.17
2023-02-15T09:02:32.144Z,32.00
2023-02-15T09:14:31.580Z,32.23
2023-02-15T09:24:46.131Z,32.13
2023-02-15T09:29:40.264Z,34.03
2023-02-15T09:34:35.094Z,31.17
2023-02-15T09:39:29.728Z,32.60
2023-02-15T09:44:35.486Z,34.40
2023-02-15T09:49:38.814Z,31.60
2023-02-15T09:54:52.987Z,35.23
2023-02-15T09:59:59.761Z,31.23
2023-02-15T10:05:08.015Z,36.40
2023-02-15T10:10:16.670Z,34.13
2023-02-15T10:15:29.694Z,35.13
2023-02-15T10:20:31.232Z,33.03
2023-02-15T10:25:37.743Z,38.03
2023-02-15T10:30:42.203Z,31.40
2023-02-15T10:35:49.125Z,43.03
2023-02-15T10:40:52.146Z,31.80
2023-02-15T10:45:58.195Z,33.07
2023-02-15T10:50:53.724Z,31.03
2023-02-15T10:55:57.438Z,29.13
2023-02-15T11:01:02.465Z,29.50
2023-02-15T11:06:05.026Z,27.07
2023-02-15T11:11:03.562Z,32.67
2023-02-15T11:16:02.094Z,25.83
2023-02-15T11:20:58.886Z,28.03
2023-02-15T11:25:58.839Z,25.57
2023-02-15T11:31:00.649Z,24.33
2023-02-15T11:35:59.853Z,29.33
2023-02-15T11:40:57.693Z,22.53
2023-02-15T11:45:51.361Z,23.40
2023-02-15T11:50:47.413Z,22.20
2023-02-15T11:55:41.221Z,24.50
2023-02-15T12:00:38.058Z,25.47
2023-02-15T12:05:32.683Z,24.73
2023-02-15T12:10:30.559Z,24.23
2023-02-15T12:15:36.452Z,21.97
2023-02-15T12:20:34.562Z,24.03
2023-02-15T12:25:35.605Z,25.70
2023-02-15T12:30:35.162Z,27.37
2023-02-15T12:35:32.093Z,28.97
2023-02-15T12:40:31.319Z,25.87
2023-02-15T12:45:29.002Z,27.20
2023-02-15T12:50:34.537Z,25.50
2023-02-15T12:55:31.040Z,28.50
2023-02-15T13:00:33.052Z,26.70
2023-02-15T13:05:32.033Z,27.50
2023-02-15T13:10:29.865Z,29.27
2023-02-15T13:15:33.889Z,31.87
2023-02-15T13:20:28.766Z,28.83
2023-02-15T13:25:25.434Z,31.87
2023-02-15T13:30:27.553Z,31.70
2023-02-15T13:35:24.198Z,32.00
2023-02-15T13:40:24.741Z,35.97
2023-02-15T13:45:39.030Z,32.63
2023-02-15T13:51:06.214Z,31.30
2023-02-15T13:56:08.776Z,30.23
2023-02-15T14:01:11.036Z,32.53
2023-02-15T14:06:38.797Z,30.23
2023-02-15T14:11:40.574Z,34.77
2023-02-15T14:16:47.990Z,30.37
2023-02-15T14:21:54.062Z,31.50
2023-02-15T14:26:55.049Z,31.53
2023-02-15T14:31:52.745Z,32.33
2023-02-15T14:36:48.244Z,33.33
2023-02-15T14:41:46.733Z,31.93
2023-02-15T14:46:48.268Z,35.40
2023-02-15T14:57:27.702Z,34.47
2023-02-15T15:02:25.639Z,39.43
2023-02-15T15:07:23.409Z,36.83
2023-02-15T15:12:41.259Z,39.53
2023-02-15T15:17:58.550Z,40.23
2023-02-15T15:22:52.845Z,40.63
2023-02-15T15:27:57.532Z,41.87
2023-02-15T15:33:01.324Z,44.37
2023-02-15T15:38:13.073Z,44.23
2023-02-15T15:43:45.430Z,45.93
2023-02-15T15:48:40.664Z,45.43
2023-02-15T15:53:43.665Z,47.93
2023-02-15T15:58:43.731Z,42.40
2023-02-15T16:03:40.554Z,45.57
2023-02-15T16:08:36.202Z,52.63
2023-02-15T16:13:30.152Z,44.30
2023-02-15T16:18:28.814Z,48.20
2023-02-15T16:23:52.544Z,58.30
2023-02-15T16:28:51.286Z,57.07
2023-02-15T16:33:47.950Z,65.20
2023-02-15T16:39:13.638Z,62.90
2023-02-15T16:44:14.529Z,65.10
2023-02-15T16:49:18.861Z,52.00
